Time;durP1;ratioP1;P1;durP2;ratioP2;P2;SDS_P1;SDS_P2;PMS_P1;PMS_P2;Temp;Humidity;BMP_temperature;BMP_pressure;BME280_temperature;BME280_humidity;BME280_pressure;Samples;Min_cycle;Max_cycle;Signal;HPM_P1;HPM_P2
2022/01/14 00:02:04;;;;;;;54.42;22.05;;;-0.30;99.90;;;;;;5018488;28;20653;-60
2022/01/14 00:04:30;;;;;;;60.78;24.25;;;-0.40;99.90;;;;;;5017283;28;20271;-59
2022/01/14 00:06:56;;;;;;;68.93;24.83;;;-0.40;99.90;;;;;;5018499;28;20029;-59
2022/01/14 00:09:22;;;;;;;61.72;23.33;;;-0.40;99.90;;;;;;5014238;28;20718;-60
2022/01/14 00:11:56;;;;;;;67.97;27.20;;;-0.40;99.90;;;;;;5016748;28;20465;-60
2022/01/14 00:14:36;;;;;;;61.63;24.15;;;-0.40;99.90;;;;;;5015051;28;20030;-60
2022/01/14 00:17:04;;;;;;;67.32;23.67;;;-0.40;99.90;;;;;;5013469;28;20034;-60
2022/01/14 00:19:30;;;;;;;72.60;23.90;;;-0.40;99.90;;;;;;5017916;28;20029;-60
2022/01/14 00:21:56;;;;;;;55.13;22.02;;;-0.40;99.90;;;;;;5019288;28;20033;-60
2022/01/14 00:32:59;;;;;;;71.07;24.53;;;-0.50;99.90;;;;;;5019732;28;19913;-58
2022/01/14 00:34:53;;;;;;;68.65;25.95;;;-0.50;99.90;;;;;;5019190;28;20116;-59
2022/01/14 00:37:18;;;;;;;63.00;25.63;;;-0.50;99.90;;;;;;5020424;28;20158;-58
2022/01/14 00:39:44;;;;;;;62.70;22.87;;;-0.50;99.90;;;;;;5027242;28;20028;-55
2022/01/14 00:42:10;;;;;;;75.25;28.20;;;-0.50;99.90;;;;;;5014906;28;20053;-60
2022/01/14 00:44:36;;;;;;;65.43;24.00;;;-0.50;99.90;;;;;;5018667;28;20044;-59
2022/01/14 00:47:03;;;;;;;65.18;24.42;;;-0.50;99.90;;;;;;5022474;28;20410;-59
2022/01/14 00:49:29;;;;;;;67.40;23.33;;;-0.50;99.90;;;;;;5033052;28;20037;-59
2022/01/14 00:51:55;;;;;;;70.60;23.65;;;-0.50;99.90;;;;;;5031862;28;20388;-58
2022/01/14 00:54:20;;;;;;;73.23;25.00;;;-0.50;99.90;;;;;;5020464;28;20570;-58
2022/01/14 00:57:00;;;;;;;65.15;24.02;;;-0.50;99.90;;;;;;5019966;28;20048;-60
2022/01/14 00:59:26;;;;;;;71.18;24.60;;;-0.50;99.90;;;;;;5018583;28;20080;-60
2022/01/14 01:01:54;;;;;;;58.38;24.33;;;-0.50;99.90;;;;;;5021456;28;20029;-60
2022/01/14 01:04:26;;;;;;;63.42;24.52;;;-0.50;99.90;;;;;;4978646;28;20088;-59
2022/01/14 01:06:52;;;;;;;63.17;23.23;;;-0.50;99.90;;;;;;5038258;28;20021;-59
2022/01/14 01:09:17;;;;;;;65.37;24.77;;;-0.50;99.90;;;;;;5023364;28;20022;-58
2022/01/14 01:11:55;;;;;;;67.27;25.93;;;-0.50;99.90;;;;;;5030697;28;20456;-53
2022/01/14 01:14:38;;;;;;;63.38;23.90;;;-0.50;99.90;;;;;;5031846;28;20025;-57
2022/01/14 01:17:04;;;;;;;61.73;22.60;;;-0.50;99.90;;;;;;5033039;28;20028;-59
2022/01/14 01:19:29;;;;;;;63.95;23.23;;;-0.50;99.90;;;;;;5032491;28;20025;-60
2022/01/14 01:21:55;;;;;;;66.60;23.27;;;-0.60;99.90;;;;;;5007601;28;20049;-58
2022/01/14 01:24:21;;;;;;;56.47;21.20;;;-0.60;99.90;;;;;;5022378;28;20021;-59
2022/01/14 01:26:49;;;;;;;62.78;23.27;;;-0.60;99.90;;;;;;5031385;28;20112;-58
2022/01/14 01:31:50;;;;;;;67.40;24.63;;;-0.60;99.90;;;;;;5030494;28;20118;-58
2022/01/14 01:34:23;;;;;;;75.93;26.50;;;-0.60;99.90;;;;;;5026602;28;20026;-58
2022/01/14 01:36:53;;;;;;;66.97;24.90;;;-0.70;99.90;;;;;;5024303;28;20438;-59
2022/01/14 01:39:22;;;;;;;68.00;23.97;;;-0.60;99.90;;;;;;5031468;28;20022;-58
2022/01/14 01:41:53;;;;;;;70.63;25.88;;;-0.60;99.90;;;;;;5023282;28;20525;-58
2022/01/14 01:44:21;;;;;;;67.72;24.17;;;-0.60;99.90;;;;;;5019301;28;20050;-58
2022/01/14 01:46:48;;;;;;;73.85;24.95;;;-0.60;99.90;;;;;;5016136;28;20038;-59
2022/01/14 01:49:16;;;;;;;76.80;24.98;;;-0.60;99.90;;;;;;5017832;28;20026;-59
2022/01/14 01:51:44;;;;;;;70.47;23.80;;;-0.60;99.90;;;;;;5020114;28;20057;-57
2022/01/14 01:54:11;;;;;;;67.70;23.73;;;-0.60;99.90;;;;;;5029259;28;20551;-57
2022/01/14 01:56:37;;;;;;;72.55;24.50;;;-0.60;99.90;;;;;;5031872;28;20025;-58
2022/01/14 01:59:03;;;;;;;73.72;27.25;;;-0.60;99.90;;;;;;5025435;28;20117;-60
2022/01/14 02:01:29;;;;;;;68.65;23.98;;;-0.60;99.90;;;;;;5029951;28;20029;-59
2022/01/14 02:03:55;;;;;;;67.03;24.23;;;-0.50;99.90;;;;;;5031012;28;20121;-59
2022/01/14 02:06:22;;;;;;;56.75;22.05;;;-0.60;99.90;;;;;;5019932;28;20053;-60
2022/01/14 02:08:48;;;;;;;63.95;22.92;;;-0.60;99.90;;;;;;5028380;28;20053;-59
2022/01/14 02:11:14;;;;;;;64.10;24.55;;;-0.60;99.90;;;;;;5029842;28;20104;-59
2022/01/14 02:13:40;;;;;;;61.03;23.40;;;-0.60;99.90;;;;;;5030146;28;20026;-60
2022/01/14 02:18:46;;;;;;;61.20;21.77;;;-0.60;99.90;;;;;;5029976;28;20025;-59
2022/01/14 02:22:10;;;;;;;60.37;22.20;;;-0.60;99.90;;;;;;5028650;28;20112;-59
2022/01/14 02:26:52;;;;;;;53.47;21.50;;;-0.70;99.90;;;;;;5026272;28;20026;-58
2022/01/14 02:29:20;;;;;;;55.88;22.98;;;-0.70;99.90;;;;;;5029529;28;20025;-58
2022/01/14 02:31:45;;;;;;;64.37;23.30;;;-0.70;99.90;;;;;;5025600;28;20115;-54
2022/01/14 02:34:13;;;;;;;58.20;22.10;;;-0.80;99.90;;;;;;5028375;28;20457;-57
2022/01/14 02:36:43;;;;;;;65.70;24.13;;;-0.80;99.90;;;;;;5024108;28;20057;-59
2022/01/14 02:39:11;;;;;;;62.97;23.80;;;-0.80;99.90;;;;;;5026817;28;20021;-58
2022/01/14 02:41:39;;;;;;;60.73;24.17;;;-0.80;99.90;;;;;;5023907;28;20484;-60
2022/01/14 02:44:08;;;;;;;62.50;22.93;;;-0.70;99.90;;;;;;5025599;28;20039;-59
2022/01/14 02:46:38;;;;;;;66.47;23.03;;;-0.70;99.90;;;;;;5028247;28;20029;-59
2022/01/14 02:49:05;;;;;;;58.97;23.57;;;-0.70;99.90;;;;;;5029482;28;20036;-59
2022/01/14 02:51:31;;;;;;;60.25;23.95;;;-0.70;99.90;;;;;;5028246;28;20025;-58
2022/01/14 02:54:10;;;;;;;67.10;22.57;;;-0.70;99.90;;;;;;5026926;28;20522;-59
2022/01/14 02:56:36;;;;;;;57.63;22.95;;;-0.70;99.90;;;;;;5029099;28;20068;-59
2022/01/14 02:59:02;;;;;;;66.53;23.47;;;-0.70;99.90;;;;;;5026111;28;20037;-58
2022/01/14 03:01:28;;;;;;;58.33;24.80;;;-0.70;99.90;;;;;;5029820;28;20033;-58
2022/01/14 03:03:56;;;;;;;70.65;23.88;;;-0.70;99.90;;;;;;5029452;28;20463;-59
2022/01/14 03:06:22;;;;;;;63.77;22.43;;;-0.80;99.90;;;;;;5013163;28;20049;-55
2022/01/14 03:08:47;;;;;;;74.18;27.10;;;-0.70;99.90;;;;;;5029196;28;20033;-59
2022/01/14 03:11:51;;;;;;;63.03;22.97;;;-0.70;99.90;;;;;;5028153;28;20491;-58
2022/01/14 03:14:23;;;;;;;57.92;23.98;;;-0.70;99.90;;;;;;5012897;28;20041;-60
2022/01/14 03:16:50;;;;;;;65.37;23.60;;;-0.70;99.90;;;;;;5030051;28;20454;-60
2022/01/14 03:19:21;;;;;;;61.23;22.87;;;-0.60;99.90;;;;;;5023776;28;20033;-57
2022/01/14 03:21:50;;;;;;;59.70;22.50;;;-0.60;99.90;;;;;;5027951;28;20033;-59
2022/01/14 03:25:36;;;;;;;58.13;20.50;;;-0.60;99.90;;;;;;5025439;28;20487;-59
2022/01/14 03:27:08;;;;;;;60.08;20.60;;;-0.60;99.90;;;;;;5025290;28;20402;-60
2022/01/14 03:29:33;;;;;;;52.97;20.97;;;-0.60;99.90;;;;;;5027129;28;20029;-58
2022/01/14 03:31:59;;;;;;;57.50;21.27;;;-0.70;99.90;;;;;;5026990;28;20026;-59
2022/01/14 03:34:25;;;;;;;60.10;21.70;;;-0.70;99.90;;;;;;5032494;28;20030;-60
2022/01/14 03:36:51;;;;;;;61.15;22.25;;;-0.70;99.90;;;;;;5029263;28;20086;-58
2022/01/14 03:39:17;;;;;;;56.38;21.25;;;-0.70;99.90;;;;;;5029030;28;20018;-59
2022/01/14 03:41:43;;;;;;;62.03;21.77;;;-0.70;99.90;;;;;;5026542;28;20029;-58
2022/01/14 03:44:09;;;;;;;50.87;20.70;;;-0.70;99.90;;;;;;5027370;28;20033;-58
2022/01/14 03:46:34;;;;;;;51.03;21.93;;;-0.80;99.90;;;;;;5027598;28;20033;-59
2022/01/14 03:49:00;;;;;;;57.37;21.33;;;-0.80;99.90;;;;;;5028571;28;20109;-60
2022/01/14 03:51:27;;;;;;;51.47;21.47;;;-0.80;99.90;;;;;;5026063;28;20029;-59
2022/01/14 03:53:53;;;;;;;56.83;20.70;;;-0.80;99.90;;;;;;5024128;28;20167;-60
2022/01/14 03:56:20;;;;;;;54.53;21.33;;;-0.90;99.90;;;;;;5027289;28;20096;-58
2022/01/14 03:58:45;;;;;;;57.17;22.43;;;-0.90;99.90;;;;;;5029435;28;20036;-59
2022/01/14 04:01:12;;;;;;;60.17;23.70;;;-0.90;99.90;;;;;;5028973;28;20026;-58
2022/01/14 04:03:39;;;;;;;61.27;22.97;;;-1.00;99.90;;;;;;5028638;28;20033;-58
2022/01/14 04:06:05;;;;;;;59.43;24.30;;;-1.00;99.90;;;;;;5016568;28;20403;-59
2022/01/14 04:08:31;;;;;;;68.83;23.30;;;-1.00;99.90;;;;;;5030514;28;20052;-58
2022/01/14 04:10:58;;;;;;;57.60;22.43;;;-1.00;99.90;;;;;;5031430;28;20030;-57
2022/01/14 04:13:37;;;;;;;58.23;22.60;;;-1.00;99.90;;;;;;5026951;28;20053;-60
2022/01/14 04:16:03;;;;;;;54.67;21.60;;;-1.10;99.90;;;;;;5032089;28;20112;-57
2022/01/14 04:18:29;;;;;;;68.20;22.73;;;-1.10;99.90;;;;;;5031583;28;20096;-58
2022/01/14 04:20:55;;;;;;;56.47;22.93;;;-1.10;99.90;;;;;;5031426;28;20421;-58
2022/01/14 04:23:24;;;;;;;60.90;21.60;;;-1.10;99.90;;;;;;5032426;28;20574;-60
2022/01/14 04:25:52;;;;;;;57.77;22.73;;;-1.00;99.90;;;;;;5030966;28;20034;-56
2022/01/14 04:28:18;;;;;;;66.07;21.90;;;-1.10;99.90;;;;;;5031141;28;20082;-59
2022/01/14 04:30:45;;;;;;;54.77;22.57;;;-1.10;99.90;;;;;;5031264;28;20567;-58
2022/01/14 04:33:10;;;;;;;64.43;22.13;;;-1.00;99.90;;;;;;5029759;28;20025;-58
2022/01/14 04:35:36;;;;;;;58.37;21.30;;;-1.10;99.90;;;;;;5030507;28;20024;-59
2022/01/14 04:38:03;;;;;;;58.83;22.20;;;-1.10;99.90;;;;;;5024183;28;20095;-59
2022/01/14 04:40:29;;;;;;;56.33;20.93;;;-1.10;99.90;;;;;;5032811;28;20025;-58
2022/01/14 04:42:57;;;;;;;53.00;22.10;;;-1.10;99.90;;;;;;5023026;28;20548;-60
2022/01/14 04:45:29;;;;;;;54.83;20.10;;;-1.10;99.90;;;;;;5026421;28;20052;-58
2022/01/14 04:47:56;;;;;;;55.37;20.87;;;-1.10;99.90;;;;;;5029421;28;20495;-59
2022/01/14 04:50:23;;;;;;;60.17;20.73;;;-1.10;99.90;;;;;;5031553;28;20034;-59
2022/01/14 04:52:49;;;;;;;57.03;22.53;;;-1.10;99.90;;;;;;5031024;28;20036;-58
2022/01/14 04:55:17;;;;;;;55.90;20.80;;;-1.10;99.90;;;;;;5031645;28;20025;-59
2022/01/14 04:57:44;;;;;;;49.87;20.63;;;-1.10;99.90;;;;;;5030958;28;20029;-59
2022/01/14 05:00:12;;;;;;;55.03;21.43;;;-1.20;99.90;;;;;;5030148;28;20030;-58
2022/01/14 05:02:38;;;;;;;62.73;23.20;;;-1.20;99.90;;;;;;5031599;28;20120;-59
2022/01/14 05:05:06;;;;;;;63.40;22.37;;;-1.10;99.90;;;;;;5031537;28;20559;-58
2022/01/14 05:07:32;;;;;;;54.77;22.37;;;-1.10;99.90;;;;;;5011048;28;20053;-58
2022/01/14 05:12:34;;;;;;;61.47;21.67;;;-1.10;99.90;;;;;;5029038;28;20517;-60
2022/01/14 05:15:01;;;;;;;46.30;19.10;;;-1.10;99.90;;;;;;5029846;28;20501;-58
2022/01/14 05:17:27;;;;;;;64.23;23.30;;;-1.10;99.90;;;;;;5030519;28;20017;-59
2022/01/14 05:19:52;;;;;;;52.93;22.53;;;-1.10;99.90;;;;;;5030533;28;20032;-58
2022/01/14 05:22:18;;;;;;;54.07;21.87;;;-1.10;99.90;;;;;;5031184;28;20368;-60
2022/01/14 05:24:44;;;;;;;55.03;20.20;;;-1.20;99.90;;;;;;5031354;28;20390;-59
2022/01/14 05:27:10;;;;;;;55.43;20.67;;;-1.20;99.90;;;;;;5031694;28;20097;-57
2022/01/14 05:29:35;;;;;;;57.10;23.03;;;-1.30;99.90;;;;;;5031493;28;20411;-60
2022/01/14 05:32:05;;;;;;;52.23;22.10;;;-1.30;99.90;;;;;;5029960;28;20071;-58
2022/01/14 05:34:33;;;;;;;58.47;20.17;;;-1.30;99.90;;;;;;5030980;28;20103;-60
2022/01/14 05:37:00;;;;;;;53.87;20.00;;;-1.30;99.90;;;;;;5024935;28;20022;-58
2022/01/14 05:39:26;;;;;;;51.63;20.70;;;-1.30;99.90;;;;;;5029577;28;20025;-58
2022/01/14 05:41:51;;;;;;;51.57;20.80;;;-1.30;99.90;;;;;;5029824;28;20025;-59
2022/01/14 05:44:17;;;;;;;56.77;21.90;;;-1.30;99.90;;;;;;5025533;28;20091;-60
2022/01/14 05:46:43;;;;;;;50.97;20.00;;;-1.30;99.90;;;;;;5030670;28;20022;-59
2022/01/14 05:49:09;;;;;;;54.70;20.67;;;-1.20;99.90;;;;;;5028952;28;20101;-56
2022/01/14 05:51:34;;;;;;;48.43;20.90;;;-1.20;99.90;;;;;;5026980;28;20026;-58
2022/01/14 05:54:00;;;;;;;60.00;22.40;;;-1.30;99.90;;;;;;5027268;28;20040;-57
2022/01/14 05:56:26;;;;;;;56.90;22.50;;;-1.30;99.90;;;;;;5025067;28;20850;-58
2022/01/14 05:58:51;;;;;;;51.93;18.30;;;-1.30;99.90;;;;;;5030800;28;20079;-58
2022/01/14 06:01:17;;;;;;;57.93;23.93;;;-1.30;99.90;;;;;;5031093;28;20029;-59
2022/01/14 06:03:42;;;;;;;54.33;22.23;;;-1.30;99.90;;;;;;5029041;28;20044;-60
2022/01/14 06:06:08;;;;;;;58.60;22.10;;;-1.30;99.90;;;;;;5013907;28;20138;-59
2022/01/14 06:08:34;;;;;;;53.87;22.00;;;-1.30;99.90;;;;;;5029166;28;20037;-59
2022/01/14 06:10:59;;;;;;;54.27;21.83;;;-1.30;99.90;;;;;;5030257;28;20029;-60
2022/01/14 06:13:25;;;;;;;48.87;19.30;;;-1.30;99.90;;;;;;5030710;28;20564;-60
2022/01/14 06:15:51;;;;;;;59.47;22.53;;;-1.20;99.90;;;;;;5030923;28;20433;-59
2022/01/14 06:18:16;;;;;;;56.37;22.27;;;-1.20;99.90;;;;;;5029136;28;20036;-59
2022/01/14 06:20:42;;;;;;;58.83;21.60;;;-1.20;99.90;;;;;;5028735;28;20053;-59
2022/01/14 06:23:08;;;;;;;53.97;23.70;;;-1.20;99.90;;;;;;5030802;28;20032;-59
2022/01/14 06:25:33;;;;;;;53.13;21.30;;;-1.30;99.90;;;;;;5027687;28;20026;-59
2022/01/14 06:27:59;;;;;;;58.57;23.20;;;-1.30;99.90;;;;;;5027097;28;20064;-59
2022/01/14 06:30:25;;;;;;;57.23;22.83;;;-1.30;99.90;;;;;;5029484;28;20057;-60
2022/01/14 06:32:54;;;;;;;59.83;22.37;;;-1.30;99.90;;;;;;5029133;28;20029;-57
2022/01/14 06:35:20;;;;;;;60.73;22.40;;;-1.30;99.90;;;;;;5029763;28;20033;-60
2022/01/14 06:37:46;;;;;;;58.47;23.63;;;-1.30;99.90;;;;;;5028348;28;20364;-60
2022/01/14 06:40:12;;;;;;;63.43;23.70;;;-1.40;99.90;;;;;;5026636;28;20026;-59
2022/01/14 06:42:38;;;;;;;63.60;23.90;;;-1.40;99.90;;;;;;5026720;28;20044;-59
2022/01/14 06:45:05;;;;;;;60.53;21.00;;;-1.40;99.90;;;;;;5027593;28;20044;-59
2022/01/14 06:47:30;;;;;;;63.77;23.80;;;-1.40;99.90;;;;;;5026463;28;20046;-59
2022/01/14 06:49:56;;;;;;;59.93;21.53;;;-1.40;99.90;;;;;;5030058;28;20071;-60
2022/01/14 06:52:22;;;;;;;60.13;22.37;;;-1.40;99.90;;;;;;5027246;28;20033;-60
2022/01/14 06:54:48;;;;;;;61.50;23.17;;;-1.40;99.90;;;;;;5028590;28;20064;-58
2022/01/14 06:57:14;;;;;;;64.43;22.27;;;-1.40;99.90;;;;;;5028318;28;20555;-58
2022/01/14 06:59:40;;;;;;;57.07;23.17;;;-1.40;99.90;;;;;;5027983;28;20423;-60
2022/01/14 07:02:06;;;;;;;67.57;24.10;;;-1.50;99.90;;;;;;5028879;28;20033;-57
2022/01/14 07:04:32;;;;;;;61.40;24.00;;;-1.50;99.90;;;;;;5025830;28;20037;-58
2022/01/14 07:06:58;;;;;;;68.40;24.27;;;-1.50;99.90;;;;;;5012462;28;20083;-59
2022/01/14 07:09:23;;;;;;;65.30;23.43;;;-1.50;99.90;;;;;;5027635;28;20033;-60
2022/01/14 07:11:55;;;;;;;65.43;22.83;;;-1.50;99.90;;;;;;5028520;28;20399;-59
2022/01/14 07:14:21;;;;;;;67.43;22.23;;;-1.50;99.90;;;;;;5025472;28;20156;-59
2022/01/14 07:16:48;;;;;;;62.87;23.20;;;-1.50;99.90;;;;;;5028437;28;20046;-60
2022/01/14 07:19:15;;;;;;;58.77;21.83;;;-1.50;99.90;;;;;;5027909;28;20461;-59
2022/01/14 07:21:41;;;;;;;62.20;22.53;;;-1.50;99.90;;;;;;5029744;28;20026;-60
2022/01/14 07:24:07;;;;;;;55.20;23.37;;;-1.50;99.90;;;;;;5028804;28;20099;-58
2022/01/14 07:26:33;;;;;;;60.83;23.57;;;-1.50;99.90;;;;;;5026460;28;20551;-59
2022/01/14 07:28:59;;;;;;;57.83;24.77;;;-1.50;99.90;;;;;;5029091;28;20192;-59
2022/01/14 07:31:25;;;;;;;62.53;23.80;;;-1.50;99.90;;;;;;5028292;28;20037;-60
2022/01/14 07:33:50;;;;;;;58.53;21.93;;;-1.50;99.90;;;;;;5028705;28;20087;-59
2022/01/14 07:36:16;;;;;;;53.13;20.60;;;-1.50;99.90;;;;;;5025796;28;20380;-59
2022/01/14 07:38:41;;;;;;;59.27;23.97;;;-1.50;99.90;;;;;;5028545;28;20459;-59
2022/01/14 07:41:07;;;;;;;55.70;21.70;;;-1.50;99.90;;;;;;5028396;28;20096;-58
2022/01/14 07:43:35;;;;;;;53.50;21.57;;;-1.40;99.90;;;;;;5027155;28;20422;-59
2022/01/14 07:46:01;;;;;;;55.27;21.33;;;-1.40;99.90;;;;;;5028101;28;20499;-59
2022/01/14 07:48:26;;;;;;;51.93;20.43;;;-1.40;99.90;;;;;;5028421;28;20128;-59
2022/01/14 07:50:52;;;;;;;46.83;19.20;;;-1.40;99.90;;;;;;5022990;28;20061;-59
2022/01/14 07:53:17;;;;;;;63.93;26.57;;;-1.30;99.90;;;;;;5026119;28;20037;-56
2022/01/14 07:55:43;;;;;;;55.93;26.57;;;-1.30;99.90;;;;;;5028298;28;20033;-59
2022/01/14 07:58:09;;;;;;;71.03;27.43;;;-1.30;99.90;;;;;;5025267;28;20099;-59
2022/01/14 08:00:36;;;;;;;66.20;30.13;;;-1.30;99.90;;;;;;5026648;28;20071;-57
2022/01/14 08:03:05;;;;;;;49.47;21.33;;;-1.30;99.90;;;;;;5027322;28;20038;-59
2022/01/14 08:05:30;;;;;;;56.93;25.27;;;-1.30;99.90;;;;;;5029975;28;20037;-59
2022/01/14 08:07:58;;;;;;;48.10;22.60;;;-1.20;99.90;;;;;;5010461;28;20053;-58
2022/01/14 08:10:24;;;;;;;50.60;22.70;;;-1.20;99.90;;;;;;5028717;28;20029;-58
2022/01/14 08:12:49;;;;;;;45.97;21.27;;;-1.20;99.90;;;;;;5027943;28;20541;-60
2022/01/14 08:15:15;;;;;;;46.07;20.57;;;-1.10;99.90;;;;;;5028962;28;20033;-59
2022/01/14 08:17:41;;;;;;;52.57;21.73;;;-1.00;99.90;;;;;;5029013;28;20034;-59
2022/01/14 08:20:08;;;;;;;46.03;19.10;;;-1.00;99.90;;;;;;5028057;28;20034;-59
2022/01/14 08:22:34;;;;;;;48.43;18.13;;;-0.90;99.90;;;;;;5028817;28;20083;-59
2022/01/14 08:25:01;;;;;;;50.27;19.13;;;-0.90;99.90;;;;;;5028958;28;20033;-59
2022/01/14 08:27:27;;;;;;;56.50;20.97;;;-0.80;99.90;;;;;;5028473;28;20495;-58
2022/01/14 08:29:53;;;;;;;44.47;19.37;;;-0.80;99.90;;;;;;5028684;28;20099;-58
2022/01/14 08:32:19;;;;;;;51.95;19.90;;;-0.70;99.90;;;;;;5026633;28;20040;-59
2022/01/14 08:34:44;;;;;;;45.92;20.40;;;-0.70;99.90;;;;;;5026559;28;20034;-59
2022/01/14 08:37:10;;;;;;;51.33;22.23;;;-0.70;99.90;;;;;;5023901;28;20026;-57
2022/01/14 08:39:36;;;;;;;41.60;19.58;;;-0.60;99.90;;;;;;5025448;28;20040;-59
2022/01/14 08:42:04;;;;;;;41.88;18.90;;;-0.60;99.90;;;;;;5026852;28;20033;-56
2022/01/14 08:44:30;;;;;;;44.38;21.67;;;-0.60;99.90;;;;;;5027669;28;20082;-58
2022/01/14 08:46:56;;;;;;;52.43;20.77;;;-0.60;99.90;;;;;;5028232;28;20437;-58
2022/01/14 08:49:22;;;;;;;49.35;21.48;;;-0.60;99.90;;;;;;5029301;28;20033;-58
2022/01/14 08:51:49;;;;;;;63.42;30.35;;;-0.60;99.90;;;;;;5031584;28;20033;-59
2022/01/14 08:54:15;;;;;;;59.13;25.58;;;-0.50;99.90;;;;;;5031744;28;20132;-58
2022/01/14 08:56:41;;;;;;;50.83;22.73;;;-0.50;99.90;;;;;;5028545;28;20482;-60
2022/01/14 08:59:07;;;;;;;50.08;22.08;;;-0.40;99.90;;;;;;5028065;28;20053;-59
2022/01/14 09:01:32;;;;;;;58.17;22.75;;;-0.30;99.90;;;;;;5027333;28;20025;-59
2022/01/14 09:03:58;;;;;;;51.05;22.23;;;-0.30;99.90;;;;;;5030900;28;20441;-59
2022/01/14 09:06:23;;;;;;;45.90;21.15;;;-0.20;99.90;;;;;;5012170;28;20038;-58
2022/01/14 09:08:52;;;;;;;44.30;20.80;;;-0.20;99.90;;;;;;5031505;28;20029;-59
2022/01/14 09:11:18;;;;;;;49.13;20.73;;;-0.10;99.90;;;;;;5031303;28;20049;-58
2022/01/14 09:13:43;;;;;;;52.50;24.63;;;-0.10;99.90;;;;;;5030864;28;20029;-59
2022/01/14 09:16:09;;;;;;;56.25;24.05;;;0.00;99.90;;;;;;5031808;28;20018;-58
2022/01/14 09:18:35;;;;;;;44.10;20.90;;;0.00;99.90;;;;;;5027891;28;20025;-60
2022/01/14 09:21:00;;;;;;;46.40;20.20;;;0.00;99.90;;;;;;5031963;28;20478;-59
2022/01/14 09:23:27;;;;;;;45.38;21.30;;;0.00;99.90;;;;;;5028928;28;20131;-59
2022/01/14 09:25:53;;;;;;;46.13;22.52;;;0.10;99.90;;;;;;5027484;28;20038;-58
2022/01/14 09:28:19;;;;;;;53.55;26.45;;;0.20;99.90;;;;;;5030637;28;20052;-58
2022/01/14 09:30:45;;;;;;;46.28;24.27;;;0.30;99.90;;;;;;5030753;28;20471;-60
2022/01/14 09:33:11;;;;;;;54.80;24.88;;;0.30;99.90;;;;;;5029535;28;20073;-55
2022/01/14 09:35:37;;;;;;;48.42;22.75;;;0.30;99.90;;;;;;5031977;28;20038;-60
2022/01/14 09:38:03;;;;;;;49.83;24.33;;;0.30;99.90;;;;;;5029592;28;20061;-58
2022/01/14 09:40:29;;;;;;;44.35;21.83;;;0.40;99.90;;;;;;5031868;28;20395;-58
2022/01/14 09:43:00;;;;;;;51.90;20.98;;;0.50;99.90;;;;;;5031986;28;20029;-59
2022/01/14 09:45:28;;;;;;;48.33;20.90;;;0.50;99.90;;;;;;5031478;28;20522;-58
2022/01/14 09:47:55;;;;;;;41.35;21.02;;;0.50;99.90;;;;;;5030167;28;20064;-59
2022/01/14 09:50:21;;;;;;;47.30;20.40;;;0.50;99.90;;;;;;5030634;28;20037;-60
2022/01/14 09:52:50;;;;;;;44.88;20.42;;;0.60;99.90;;;;;;5030876;28;20041;-60
2022/01/14 09:55:16;;;;;;;50.03;21.80;;;0.80;99.90;;;;;;5032700;28;20049;-60
2022/01/14 09:57:42;;;;;;;44.03;20.95;;;1.10;99.90;;;;;;5028584;28;21665;-59
2022/01/14 10:00:08;;;;;;;44.65;19.88;;;1.30;99.90;;;;;;5031701;28;20112;-58
2022/01/14 10:02:43;;;;;;;33.78;18.17;;;1.60;99.90;;;;;;5029891;28;20115;-58
2022/01/14 10:05:30;;;;;;;53.97;23.92;;;1.70;99.90;;;;;;5031593;28;20554;-58
2022/01/14 10:08:14;;;;;;;37.28;17.85;;;1.60;99.90;;;;;;4997652;28;20044;-60
2022/01/14 10:10:49;;;;;;;35.92;19.73;;;1.50;99.90;;;;;;5030025;28;20025;-59
2022/01/14 10:13:21;;;;;;;35.28;17.63;;;1.60;99.90;;;;;;5029793;28;20483;-58
2022/01/14 10:16:00;;;;;;;30.88;16.67;;;1.60;99.90;;;;;;5029570;28;20021;-58
2022/01/14 10:18:26;;;;;;;41.65;17.77;;;1.50;99.90;;;;;;5029881;28;20543;-59
2022/01/14 10:20:51;;;;;;;37.17;17.77;;;1.50;99.90;;;;;;5031197;28;20164;-58
2022/01/14 10:23:37;;;;;;;34.00;16.25;;;1.60;99.90;;;;;;5030372;28;20025;-59
2022/01/14 10:26:04;;;;;;;32.70;15.93;;;1.60;99.90;;;;;;5030764;28;20407;-64
2022/01/14 10:28:30;;;;;;;37.35;18.67;;;1.60;99.90;;;;;;5027392;28;20037;-59
2022/01/14 10:30:55;;;;;;;32.03;15.70;;;1.60;99.90;;;;;;5028570;28;20033;-59
2022/01/14 10:33:26;;;;;;;29.15;16.05;;;1.60;99.90;;;;;;5029412;28;20032;-59
2022/01/14 10:35:51;;;;;;;32.40;15.90;;;1.70;99.90;;;;;;5031124;28;20101;-59
2022/01/14 10:38:20;;;;;;;32.45;15.75;;;1.70;99.90;;;;;;5029097;28;20101;-59
2022/01/14 10:40:48;;;;;;;28.08;15.50;;;1.70;99.90;;;;;;5035554;28;20032;-60
2022/01/14 10:43:16;;;;;;;33.65;14.02;;;1.70;99.90;;;;;;5034578;28;20112;-59
2022/01/14 10:45:44;;;;;;;28.38;13.75;;;1.90;99.90;;;;;;5030880;28;20033;-59
2022/01/14 10:48:16;;;;;;;32.53;15.77;;;2.00;99.90;;;;;;5028669;28;20060;-58
2022/01/14 10:50:54;;;;;;;27.73;14.38;;;2.10;99.90;;;;;;5029266;28;20618;-58
2022/01/14 10:53:30;;;;;;;31.70;14.93;;;2.20;99.90;;;;;;5029862;28;20036;-59
2022/01/14 10:56:05;;;;;;;31.92;14.07;;;2.30;99.90;;;;;;5030147;28;20029;-59
2022/01/14 10:58:41;;;;;;;25.65;14.10;;;2.30;99.90;;;;;;5027368;28;20399;-59
2022/01/14 11:01:11;;;;;;;26.33;13.38;;;2.50;99.90;;;;;;5031585;28;20049;-59
2022/01/14 11:03:53;;;;;;;30.02;13.00;;;2.60;99.90;;;;;;5034242;28;20328;-59
2022/01/14 11:06:23;;;;;;;27.33;12.52;;;2.80;99.90;;;;;;5025151;28;20026;-60
2022/01/14 11:09:00;;;;;;;30.85;14.25;;;2.90;99.90;;;;;;5011553;28;20104;-60
2022/01/14 11:11:28;;;;;;;27.27;13.23;;;3.00;99.90;;;;;;5023761;28;20040;-59
2022/01/14 11:13:54;;;;;;;28.77;14.48;;;3.20;99.90;;;;;;5021175;28;20108;-60
2022/01/14 11:16:20;;;;;;;28.98;13.68;;;3.40;99.90;;;;;;5028425;28;20060;-58
2022/01/14 11:18:47;;;;;;;35.65;16.80;;;3.60;99.90;;;;;;5029395;28;20108;-60
2022/01/14 11:23:57;;;;;;;;;;;3.80;99.90;;;;;;5022165;28;20099;-59
2022/01/14 11:26:29;;;;;;;42.03;19.10;;;3.90;99.90;;;;;;5027355;28;20297;-60
2022/01/14 11:29:03;;;;;;;38.15;17.45;;;3.90;99.90;;;;;;5026731;28;20029;-60
2022/01/14 11:31:30;;;;;;;29.00;16.25;;;4.10;99.90;;;;;;5028349;28;20037;-60
2022/01/14 11:33:57;;;;;;;30.25;16.35;;;4.00;99.90;;;;;;5028208;28;20025;-59
2022/01/14 11:36:23;;;;;;;30.00;14.25;;;4.10;99.90;;;;;;5028580;28;20029;-60
2022/01/14 11:38:48;;;;;;;24.15;14.00;;;4.10;99.90;;;;;;5025486;28;20018;-59
2022/01/14 11:41:19;;;;;;;39.40;18.85;;;4.00;99.90;;;;;;5024365;28;20441;-59
2022/01/14 11:43:50;;;;;;;43.08;20.98;;;4.00;99.90;;;;;;5015795;28;20044;-60
2022/01/14 11:46:36;;;;;;;35.50;17.00;;;3.90;99.90;;;;;;5022461;28;20394;-59
2022/01/14 11:49:22;;;;;;;37.90;16.40;;;4.00;99.90;;;;;;5025530;28;20402;-59
2022/01/14 11:52:00;;;;;;;32.35;15.85;;;4.00;99.90;;;;;;5031729;28;20057;-59
2022/01/14 11:54:46;;;;;;;37.85;17.30;;;4.00;99.90;;;;;;5028750;28;20402;-58
2022/01/14 11:57:55;;;;;;;32.15;16.20;;;3.90;99.90;;;;;;5027971;28;20128;-58
2022/01/14 12:03:15;;;;;;;44.35;20.52;;;4.10;99.90;;;;;;5025821;28;20029;-60
2022/01/14 12:05:49;;;;;;;47.00;21.55;;;4.10;99.90;;;;;;4976958;28;20053;-58
2022/01/14 12:08:16;;;;;;;;;;;4.20;99.90;;;;;;5000111;28;20092;-59
2022/01/14 12:10:44;;;;;;;43.83;22.27;;;4.10;99.90;;;;;;5029165;28;19916;-59
2022/01/14 12:13:58;;;;;;;50.85;24.13;;;4.20;99.90;;;;;;5027243;28;20029;-59
2022/01/14 12:18:58;;;;;;;;;;;4.20;99.90;;;;;;5025768;28;20032;-58
2022/01/14 12:21:42;;;;;;;35.42;16.65;;;4.30;99.90;;;;;;5023946;28;19996;-59
2022/01/14 12:24:38;;;;;;;38.90;18.30;;;4.40;99.90;;;;;;5027412;28;20025;-58
2022/01/14 12:27:04;;;;;;;30.98;16.30;;;4.40;99.90;;;;;;5020750;28;20033;-57
2022/01/14 12:29:44;;;;;;;32.58;17.10;;;4.50;99.90;;;;;;5029576;28;20037;-61
2022/01/14 12:32:30;;;;;;;41.45;21.08;;;4.50;99.90;;;;;;5031005;28;20036;-59
2022/01/14 12:34:55;;;;;;;38.20;20.23;;;4.40;99.90;;;;;;5032053;28;20102;-60
2022/01/14 12:37:36;;;;;;;34.40;17.75;;;4.30;99.90;;;;;;5026712;28;20495;-60
2022/01/14 12:40:20;;;;;;;48.95;20.65;;;4.40;99.90;;;;;;5032242;28;20092;-59
2022/01/14 12:42:59;;;;;;;38.90;18.05;;;4.30;99.90;;;;;;5030018;28;20045;-60
2022/01/14 12:45:33;;;;;;;56.15;24.80;;;4.30;99.90;;;;;;5032889;28;20033;-59
2022/01/14 12:48:40;;;;;;;41.88;21.10;;;4.20;99.90;;;;;;5029869;28;20109;-60
2022/01/14 12:51:08;;;;;;;42.45;20.23;;;4.20;99.90;;;;;;5024652;28;20026;-58
2022/01/14 12:53:34;;;;;;;47.35;20.80;;;4.20;99.90;;;;;;5031541;28;20026;-60
2022/01/14 12:56:15;;;;;;;51.38;21.83;;;4.10;99.90;;;;;;5028371;28;20060;-60
2022/01/14 12:58:55;;;;;;;50.28;21.48;;;4.00;99.90;;;;;;5029087;28;20031;-59
2022/01/14 13:01:35;;;;;;;48.17;18.63;;;4.00;99.90;;;;;;5032710;28;20030;-58
2022/01/14 13:04:04;;;;;;;46.83;19.13;;;4.00;99.90;;;;;;5032788;28;20025;-57
2022/01/14 13:06:53;;;;;;;40.30;18.23;;;4.00;99.90;;;;;;5034951;28;20022;-60